createdAt,value
2022-11-24T00:01:45.187Z,12.82
2022-11-24T00:04:13.868Z,15.00
2022-11-24T00:06:43.869Z,16.77
2022-11-24T00:09:12.733Z,11.48
2022-11-24T00:11:41.875Z,13.70
2022-11-24T00:14:11.300Z,15.48
2022-11-24T00:16:40.187Z,12.27
2022-11-24T00:19:10.316Z,11.63
2022-11-24T00:21:39.239Z,12.27
2022-11-24T00:24:09.486Z,12.50
2022-11-24T00:26:38.630Z,11.70
2022-11-24T00:29:08.759Z,16.52
2022-11-24T00:31:38.525Z,13.57
2022-11-24T00:34:08.410Z,12.20
2022-11-24T00:36:37.290Z,13.00
2022-11-24T00:39:09.014Z,13.10
2022-11-24T00:41:37.574Z,14.02
2022-11-24T00:44:06.822Z,12.02
2022-11-24T00:46:35.956Z,12.98
2022-11-24T00:49:04.713Z,13.32
2022-11-24T00:51:33.308Z,13.25
2022-11-24T00:54:02.423Z,12.40
2022-11-24T00:56:32.517Z,12.63
2022-11-24T00:59:01.103Z,12.75
2022-11-24T01:01:31.264Z,12.07
2022-11-24T01:04:02.148Z,11.98
2022-11-24T01:06:31.271Z,15.05
2022-11-24T01:09:00.090Z,11.63
2022-11-24T01:11:51.695Z,12.30
2022-11-24T01:14:20.911Z,11.18
2022-11-24T01:16:49.674Z,11.18
2022-11-24T01:19:18.423Z,12.80
2022-11-24T01:21:47.719Z,11.88
2022-11-24T01:24:16.807Z,13.60
2022-11-24T01:26:46.867Z,12.20
2022-11-24T01:29:15.559Z,13.82
2022-11-24T01:31:44.244Z,12.18
2022-11-24T01:34:13.490Z,13.23
2022-11-24T01:36:42.128Z,11.38
2022-11-24T01:39:10.708Z,10.52
2022-11-24T01:41:39.426Z,11.27
2022-11-24T01:44:26.406Z,11.02
2022-11-24T01:46:56.961Z,13.15
2022-11-24T01:49:28.225Z,12.05
2022-11-24T01:51:59.233Z,13.05
2022-11-24T01:54:29.886Z,12.73
2022-11-24T01:57:03.892Z,10.43
2022-11-24T01:59:33.822Z,11.18
2022-11-24T02:02:02.431Z,12.40
2022-11-24T02:04:32.682Z,11.80
2022-11-24T02:07:02.422Z,12.38
2022-11-24T02:09:34.005Z,14.05
2022-11-24T02:12:02.627Z,13.32
2022-11-24T02:14:31.663Z,12.45
2022-11-24T02:17:01.889Z,12.55
2022-11-24T02:19:38.935Z,11.90
2022-11-24T02:22:08.340Z,12.07
2022-11-24T02:24:41.478Z,11.98
2022-11-24T02:27:11.536Z,10.73
2022-11-24T02:29:40.190Z,13.38
2022-11-24T02:32:09.026Z,10.75
2022-11-24T02:34:37.725Z,11.38
2022-11-24T02:37:06.632Z,11.65
2022-11-24T02:39:35.751Z,13.15
2022-11-24T02:42:06.895Z,14.10
2022-11-24T02:44:39.108Z,11.48
2022-11-24T02:47:08.946Z,11.43
2022-11-24T02:49:37.588Z,12.88
2022-11-24T02:52:06.290Z,9.88
2022-11-24T02:54:34.956Z,11.75
2022-11-24T02:57:03.868Z,11.23
2022-11-24T02:59:32.532Z,11.52
2022-11-24T03:02:03.166Z,12.73
2022-11-24T03:04:32.093Z,12.40
2022-11-24T03:07:01.079Z,12.13
2022-11-24T03:09:30.384Z,10.05
2022-11-24T03:11:59.040Z,11.60
2022-11-24T03:14:27.767Z,12.73
2022-11-24T03:16:56.448Z,11.88
2022-11-24T03:19:26.355Z,11.52
2022-11-24T03:21:55.049Z,12.43
2022-11-24T03:24:23.846Z,11.85
2022-11-24T03:26:52.503Z,11.30
2022-11-24T03:29:21.437Z,11.88
2022-11-24T03:31:50.262Z,10.70
2022-11-24T03:34:18.836Z,12.02
2022-11-24T03:36:48.909Z,12.05
2022-11-24T03:39:17.492Z,12.82
2022-11-24T03:41:45.978Z,11.48
2022-11-24T03:44:14.596Z,10.98
2022-11-24T03:46:43.201Z,11.55
2022-11-24T03:49:11.869Z,11.60
2022-11-24T03:51:40.414Z,11.07
2022-11-24T03:54:10.833Z,10.95
2022-11-24T03:56:39.460Z,13.00
2022-11-24T03:59:08.881Z,13.07
2022-11-24T04:01:37.537Z,10.60
2022-11-24T04:04:06.559Z,12.30
2022-11-24T04:06:35.214Z,11.48
2022-11-24T04:09:03.769Z,10.38
2022-11-24T04:11:51.418Z,13.27
2022-11-24T04:14:21.093Z,11.18
2022-11-24T04:16:49.713Z,11.05
2022-11-24T04:19:18.501Z,11.23
2022-11-24T04:21:47.208Z,12.25
2022-11-24T04:24:15.834Z,12.23
2022-11-24T04:26:45.895Z,12.05
2022-11-24T04:29:15.797Z,11.25
2022-11-24T04:31:44.479Z,11.25
2022-11-24T04:34:13.358Z,9.90
2022-11-24T04:36:41.992Z,11.43
2022-11-24T04:39:23.847Z,11.07
2022-11-24T04:41:56.624Z,10.02
2022-11-24T04:44:25.397Z,9.82
2022-11-24T04:46:54.001Z,11.32
2022-11-24T04:49:22.822Z,11.90
2022-11-24T04:51:51.384Z,11.32
2022-11-24T04:54:20.046Z,12.18
2022-11-24T04:56:51.553Z,13.05
2022-11-24T04:59:21.553Z,10.05
2022-11-24T05:01:50.201Z,9.88
2022-11-24T05:04:20.540Z,10.20
2022-11-24T05:06:49.145Z,10.77
2022-11-24T05:09:18.194Z,12.23
2022-11-24T05:11:46.806Z,9.60
2022-11-24T05:14:15.555Z,12.35
2022-11-24T05:16:45.416Z,10.38
2022-11-24T05:19:14.439Z,13.48
2022-11-24T05:21:44.990Z,11.07
2022-11-24T05:24:13.864Z,9.40
2022-11-24T05:26:42.413Z,11.68
2022-11-24T05:29:11.069Z,11.65
2022-11-24T05:31:39.665Z,11.45
2022-11-24T05:34:10.387Z,11.90
2022-11-24T05:36:53.796Z,13.40
2022-11-24T05:39:22.541Z,9.55
2022-11-24T05:41:51.264Z,9.68
2022-11-24T05:44:19.808Z,11.20
2022-11-24T05:46:48.474Z,11.43
2022-11-24T05:49:18.485Z,12.10
2022-11-24T05:51:47.353Z,11.50
2022-11-24T05:54:16.163Z,12.27
2022-11-24T05:56:44.922Z,10.88
2022-11-24T05:59:13.493Z,11.25
2022-11-24T06:01:42.182Z,10.77
2022-11-24T06:04:10.769Z,9.40
2022-11-24T06:06:40.791Z,11.20
2022-11-24T06:09:09.561Z,13.45
2022-11-24T06:11:38.120Z,9.80
2022-11-24T06:14:10.866Z,11.77
2022-11-24T06:16:40.039Z,12.68
2022-11-24T06:19:08.491Z,11.45
2022-11-24T06:21:37.167Z,12.02
2022-11-24T06:24:08.450Z,10.77
2022-11-24T06:26:37.006Z,10.52
2022-11-24T06:29:05.690Z,11.88
2022-11-24T06:31:34.321Z,12.13
2022-11-24T06:34:02.858Z,13.20
2022-11-24T06:36:31.632Z,9.98
2022-11-24T06:39:02.307Z,11.43
2022-11-24T06:41:32.293Z,13.35
2022-11-24T06:44:03.743Z,12.65
2022-11-24T06:46:32.353Z,11.52
2022-11-24T06:49:01.055Z,22.77
2022-11-24T06:51:29.734Z,22.42
2022-11-24T06:53:58.317Z,20.02
2022-11-24T06:56:26.815Z,32.22
2022-11-24T06:58:56.614Z,29.65
2022-11-24T07:01:27.142Z,32.80
2022-11-24T07:03:56.231Z,25.67
2022-11-24T07:06:26.125Z,23.10
2022-11-24T07:08:54.690Z,28.90
2022-11-24T07:11:25.320Z,26.27
2022-11-24T07:13:58.327Z,27.55
2022-11-24T07:16:29.602Z,32.95
2022-11-24T07:18:58.301Z,22.15
2022-11-24T07:21:28.310Z,26.60
2022-11-24T07:23:58.011Z,26.15
2022-11-24T07:26:26.689Z,29.52
2022-11-24T07:28:55.323Z,29.80
2022-11-24T07:31:26.083Z,35.67
2022-11-24T07:33:56.508Z,35.42
2022-11-24T07:36:26.387Z,37.33
2022-11-24T07:38:54.938Z,35.63
2022-11-24T07:41:23.398Z,31.15
2022-11-24T07:43:52.067Z,35.85
2022-11-24T07:46:21.080Z,32.92
2022-11-24T07:48:49.651Z,37.15
2022-11-24T07:51:19.532Z,37.42
2022-11-24T07:53:48.081Z,31.13
2022-11-24T07:56:16.676Z,28.80
2022-11-24T07:58:49.693Z,29.08
2022-11-24T08:01:21.557Z,34.65
2022-11-24T08:03:50.172Z,26.67
2022-11-24T08:06:26.485Z,27.92
2022-11-24T08:08:57.669Z,26.45
2022-11-24T08:11:26.374Z,36.40
2022-11-24T08:13:56.144Z,34.38
2022-11-24T08:16:24.721Z,38.22
2022-11-24T08:18:54.487Z,37.05
2022-11-24T08:21:24.528Z,40.33
2022-11-24T08:23:56.247Z,48.35
2022-11-24T08:26:25.163Z,50.83
2022-11-24T08:28:56.222Z,48.20
2022-11-24T08:31:24.981Z,48.88
2022-11-24T08:33:54.020Z,49.13
2022-11-24T08:36:23.964Z,50.03
2022-11-24T08:38:56.203Z,62.33
2022-11-24T08:41:27.633Z,47.45
2022-11-24T08:43:56.329Z,48.80
2022-11-24T08:46:24.939Z,48.22
2022-11-24T08:48:55.204Z,36.65
2022-11-24T08:51:26.506Z,40.85
2022-11-24T08:53:56.906Z,38.85
2022-11-24T08:56:25.850Z,46.50
2022-11-24T08:58:54.783Z,36.10
2022-11-24T09:01:23.399Z,41.78
2022-11-24T09:03:52.233Z,37.22
2022-11-24T09:06:23.114Z,35.30
2022-11-24T09:08:53.233Z,37.58
2022-11-24T09:11:21.649Z,34.42
2022-11-24T09:13:50.296Z,33.42
2022-11-24T09:16:20.192Z,32.85
2022-11-24T09:18:49.175Z,31.50
2022-11-24T09:21:18.916Z,33.10
2022-11-24T09:23:48.499Z,32.63
2022-11-24T09:26:20.933Z,29.77
2022-11-24T09:28:50.206Z,28.42
2022-11-24T09:31:19.144Z,29.20
2022-11-24T09:33:47.753Z,31.33
2022-11-24T09:36:16.311Z,26.83
2022-11-24T09:38:44.876Z,27.45
2022-11-24T09:41:40.999Z,26.42
2022-11-24T09:44:18.414Z,27.15
2022-11-24T09:46:54.363Z,23.35
2022-11-24T09:49:29.065Z,28.75
2022-11-24T09:51:57.680Z,26.73
2022-11-24T09:54:27.900Z,26.38
2022-11-24T09:56:58.550Z,29.73
2022-11-24T09:59:27.608Z,22.73
2022-11-24T10:01:57.910Z,25.67
2022-11-24T10:04:29.503Z,23.10
2022-11-24T10:07:03.731Z,24.77
2022-11-24T10:09:47.216Z,29.45
2022-11-24T10:12:28.940Z,23.15
2022-11-24T10:15:24.660Z,25.17
2022-11-24T10:18:17.799Z,23.67
2022-11-24T10:20:54.368Z,21.83
2022-11-24T10:23:39.963Z,21.60
2022-11-24T10:26:13.668Z,22.05
2022-11-24T10:28:49.058Z,22.73
2022-11-24T10:31:26.019Z,23.50
2022-11-24T10:33:54.630Z,22.00
2022-11-24T10:36:27.487Z,22.45
2022-11-24T10:39:01.082Z,21.15
2022-11-24T10:41:40.634Z,22.20
2022-11-24T10:44:14.986Z,21.88
2022-11-24T10:46:45.089Z,22.15
2022-11-24T10:49:19.602Z,26.52
2022-11-24T10:52:07.800Z,19.73
2022-11-24T10:54:36.990Z,20.15
2022-11-24T10:57:05.798Z,22.50
2022-11-24T10:59:38.836Z,24.10
2022-11-24T11:02:43.412Z,20.70
2022-11-24T11:05:35.325Z,20.30
2022-11-24T11:08:17.349Z,20.10
2022-11-24T11:10:46.268Z,20.15
2022-11-24T11:13:26.284Z,23.48
2022-11-24T11:15:56.455Z,19.10
2022-11-24T11:18:28.573Z,21.50
2022-11-24T11:20:58.184Z,20.20
2022-11-24T11:23:29.314Z,23.13
2022-11-24T11:26:21.017Z,19.15
2022-11-24T11:34:50.392Z,20.30
2022-11-24T11:37:19.870Z,20.02
2022-11-24T11:39:49.663Z,19.83
2022-11-24T11:42:53.829Z,16.70
2022-11-24T11:45:14.480Z,18.50
2022-11-24T11:47:46.219Z,18.13
2022-11-24T11:50:15.841Z,21.83
2022-11-24T11:52:57.602Z,17.60
2022-11-24T11:55:49.883Z,15.25
2022-11-24T11:58:51.925Z,19.88
2022-11-24T12:01:51.582Z,20.50
2022-11-24T12:04:27.865Z,16.88
2022-11-24T12:07:22.724Z,17.77
2022-11-24T12:09:58.908Z,18.58
2022-11-24T12:12:49.138Z,16.77
2022-11-24T12:15:23.119Z,19.38
2022-11-24T12:17:54.079Z,19.98
2022-11-24T12:20:40.283Z,20.70
2022-11-24T12:23:19.851Z,18.20
2022-11-24T12:25:52.191Z,19.42
2022-11-24T12:28:31.284Z,17.48
2022-11-24T12:31:06.845Z,19.13
2022-11-24T12:33:56.551Z,17.85
2022-11-24T12:36:45.574Z,18.42
2022-11-24T12:39:21.779Z,17.23
2022-11-24T12:41:59.986Z,17.42
2022-11-24T12:44:50.699Z,17.10
2022-11-24T12:47:20.911Z,16.50
2022-11-24T12:49:59.123Z,18.15
2022-11-24T12:52:32.592Z,19.02
2022-11-24T12:55:01.129Z,19.08
2022-11-24T12:57:32.360Z,16.73
2022-11-24T13:00:03.924Z,15.85
2022-11-24T13:02:44.624Z,18.15
2022-11-24T13:05:21.965Z,16.45
2022-11-24T13:07:58.681Z,16.80
2022-11-24T13:13:23.693Z,15.55
2022-11-24T13:19:10.700Z,13.90
2022-11-24T13:22:04.321Z,15.80
2022-11-24T13:24:36.547Z,18.52
2022-11-24T13:27:43.734Z,16.92
2022-11-24T13:30:54.474Z,16.25
2022-11-24T13:33:39.232Z,17.40
2022-11-24T13:36:35.728Z,17.15
2022-11-24T13:39:05.451Z,13.90
2022-11-24T13:42:03.381Z,15.27
2022-11-24T13:44:54.376Z,16.35
2022-11-24T13:47:43.130Z,17.70
2022-11-24T13:50:22.534Z,17.77
2022-11-24T13:52:53.742Z,17.00
2022-11-24T13:55:33.562Z,13.68
2022-11-24T13:58:24.252Z,17.13
2022-11-24T14:01:15.665Z,16.58
2022-11-24T14:04:28.609Z,14.30
2022-11-24T14:06:48.002Z,16.23
2022-11-24T14:09:31.853Z,15.68
2022-11-24T14:12:06.148Z,17.40
2022-11-24T14:14:36.162Z,13.77
2022-11-24T14:17:20.094Z,13.63
2022-11-24T14:19:50.070Z,15.02
2022-11-24T14:22:21.552Z,15.73
2022-11-24T14:24:57.328Z,15.68
2022-11-24T14:27:30.667Z,15.38
2022-11-24T14:30:02.526Z,13.10
2022-11-24T14:32:31.105Z,14.43
2022-11-24T14:34:59.675Z,16.42
2022-11-24T14:37:28.344Z,16.30
2022-11-24T14:39:57.014Z,14.65
2022-11-24T14:42:27.411Z,14.27
2022-11-24T14:44:58.639Z,16.45
2022-11-24T14:47:33.163Z,16.58
2022-11-24T14:50:12.477Z,15.65
2022-11-24T14:52:46.742Z,16.50
2022-11-24T14:55:26.621Z,15.13
2022-11-24T14:57:55.143Z,13.93
2022-11-24T15:00:28.966Z,13.18
2022-11-24T15:03:16.058Z,15.63
2022-11-24T15:05:56.928Z,13.52
2022-11-24T15:08:26.613Z,14.93
2022-11-24T15:11:00.156Z,14.75
2022-11-24T15:13:28.895Z,15.00
2022-11-24T15:16:02.958Z,14.88
2022-11-24T15:18:38.741Z,17.58
2022-11-24T15:21:07.558Z,15.93
2022-11-24T15:23:41.102Z,15.75
2022-11-24T15:26:30.701Z,16.05
2022-11-24T15:29:01.764Z,16.83
2022-11-24T15:31:30.265Z,16.13
2022-11-24T15:34:00.321Z,15.18
2022-11-24T15:36:28.767Z,14.57
2022-11-24T15:38:57.271Z,15.15
2022-11-24T15:41:29.525Z,16.63
2022-11-24T15:44:00.096Z,14.80
2022-11-24T15:46:29.505Z,15.35
2022-11-24T15:48:59.355Z,18.08
2022-11-24T15:51:27.835Z,15.77
2022-11-24T15:54:00.990Z,15.45
2022-11-24T15:56:32.246Z,14.35
2022-11-24T15:59:00.902Z,14.15
2022-11-24T16:01:32.369Z,14.98
2022-11-24T16:04:02.459Z,15.65
2022-11-24T16:06:31.058Z,19.25
2022-11-24T16:08:59.573Z,16.52
2022-11-24T16:11:28.144Z,18.13
2022-11-24T16:13:56.706Z,16.85
2022-11-24T16:16:25.722Z,15.50
2022-11-24T16:18:54.370Z,15.18
2022-11-24T16:21:24.208Z,13.80
2022-11-24T16:23:52.682Z,15.73
2022-11-24T16:26:21.394Z,15.10
2022-11-24T16:28:49.962Z,16.50
2022-11-24T16:31:19.792Z,15.68
2022-11-24T16:33:48.656Z,14.88
2022-11-24T16:36:17.110Z,16.02
2022-11-24T16:38:46.940Z,14.73
2022-11-24T16:41:16.019Z,19.52
2022-11-24T16:43:44.458Z,15.00
2022-11-24T16:46:20.478Z,17.15
2022-11-24T16:48:50.733Z,14.98
2022-11-24T16:51:20.683Z,16.05
2022-11-24T16:53:50.729Z,16.17
2022-11-24T16:56:19.550Z,15.05
2022-11-24T16:58:48.036Z,17.98
2022-11-24T17:01:16.766Z,15.65
2022-11-24T17:03:45.336Z,14.70
2022-11-24T17:06:16.740Z,15.45
2022-11-24T17:08:45.976Z,17.58
2022-11-24T17:11:16.753Z,16.17
2022-11-24T17:13:47.122Z,16.77
2022-11-24T17:16:18.018Z,19.15
2022-11-24T17:18:46.805Z,16.60
2022-11-24T17:21:16.764Z,18.45
2022-11-24T17:23:45.236Z,21.50
2022-11-24T17:26:16.072Z,35.95
2022-11-24T17:28:44.662Z,43.72
2022-11-24T17:31:18.215Z,56.55
2022-11-24T17:33:46.739Z,51.70
2022-11-24T17:36:15.186Z,27.98
2022-11-24T17:38:43.933Z,39.13
2022-11-24T17:41:12.792Z,34.45
2022-11-24T17:43:42.632Z,39.33
2022-11-24T17:46:11.428Z,33.45
2022-11-24T17:48:40.292Z,38.58
2022-11-24T17:51:12.767Z,35.00
2022-11-24T17:53:42.113Z,36.53
2022-11-24T17:56:13.546Z,35.50
2022-11-24T17:58:43.663Z,32.97
2022-11-24T18:01:12.480Z,31.20
2022-11-24T18:03:41.312Z,34.72
2022-11-24T18:06:11.247Z,38.40
2022-11-24T18:08:41.081Z,35.38
2022-11-24T18:11:10.498Z,34.67
2022-11-24T18:16:30.420Z,35.28
2022-11-24T18:19:08.485Z,41.45
2022-11-24T18:21:37.842Z,34.45
2022-11-24T18:24:07.082Z,36.28
2022-11-24T18:26:35.666Z,40.90
2022-11-24T18:29:04.610Z,33.10
2022-11-24T18:31:35.793Z,39.55
2022-11-24T18:34:05.076Z,36.22
2022-11-24T18:36:33.583Z,44.95
2022-11-24T18:39:02.081Z,37.88
2022-11-24T18:41:30.616Z,36.47
2022-11-24T18:44:00.887Z,39.65
2022-11-24T18:46:30.017Z,39.92
2022-11-24T18:49:00.195Z,38.20
2022-11-24T18:51:28.743Z,35.65
2022-11-24T18:53:58.296Z,34.40
2022-11-24T18:56:27.150Z,47.33
2022-11-24T18:58:56.056Z,40.75
2022-11-24T19:01:25.872Z,40.97
2022-11-24T19:03:55.689Z,38.55
2022-11-24T19:06:28.918Z,38.28
2022-11-24T19:08:57.622Z,39.05
2022-11-24T19:11:28.251Z,38.13
2022-11-24T19:13:57.560Z,34.90
2022-11-24T19:16:26.190Z,41.80
2022-11-24T19:18:57.317Z,37.30
2022-11-24T19:21:27.324Z,34.08
2022-11-24T19:23:59.766Z,39.28
2022-11-24T19:26:31.536Z,38.30
2022-11-24T19:28:59.948Z,31.67
2022-11-24T19:31:28.620Z,35.75
2022-11-24T19:33:58.858Z,34.20
2022-11-24T19:36:28.898Z,35.65
2022-11-24T19:38:58.098Z,35.20
2022-11-24T19:41:28.649Z,37.35
2022-11-24T19:43:58.526Z,32.28
2022-11-24T19:46:29.545Z,37.20
2022-11-24T19:49:02.182Z,32.72
2022-11-24T19:51:38.480Z,30.85
2022-11-24T19:54:08.235Z,35.75
2022-11-24T19:56:37.394Z,32.58
2022-11-24T19:59:06.749Z,32.88
2022-11-24T20:01:37.205Z,28.90
2022-11-24T20:04:07.634Z,31.10
2022-11-24T20:06:38.790Z,31.55
2022-11-24T20:09:09.388Z,29.08
2022-11-24T20:11:39.703Z,29.38
2022-11-24T20:14:08.885Z,28.33
2022-11-24T20:16:37.356Z,32.72
2022-11-24T20:19:07.531Z,29.52
2022-11-24T20:21:38.537Z,28.33
2022-11-24T20:24:08.990Z,28.65
2022-11-24T20:26:39.624Z,26.00
2022-11-24T20:29:09.941Z,31.58
2022-11-24T20:31:40.694Z,30.67
2022-11-24T20:34:09.553Z,35.10
2022-11-24T20:36:41.316Z,30.83
2022-11-24T20:39:12.373Z,28.27
2022-11-24T20:41:41.434Z,26.67
2022-11-24T20:44:13.684Z,31.88
2022-11-24T20:46:42.987Z,27.30
2022-11-24T20:49:13.781Z,31.00
2022-11-24T20:51:44.373Z,29.10
2022-11-24T20:54:14.060Z,27.23
2022-11-24T20:56:44.256Z,24.38
2022-11-24T20:59:13.818Z,32.35
2022-11-24T21:01:43.983Z,26.45
2022-11-24T21:04:14.113Z,33.67
2022-11-24T21:06:44.006Z,29.92
2022-11-24T21:09:12.499Z,60.58
2022-11-24T21:11:40.982Z,45.08
2022-11-24T21:14:09.722Z,46.50
2022-11-24T21:16:39.471Z,53.55
2022-11-24T21:19:11.621Z,51.50
2022-11-24T21:21:42.598Z,52.03
2022-11-24T21:24:14.267Z,44.33
2022-11-24T21:26:43.295Z,45.58
2022-11-24T21:29:12.843Z,45.33
2022-11-24T21:31:41.566Z,52.47
2022-11-24T21:34:10.691Z,41.92
2022-11-24T21:36:41.787Z,40.00
2022-11-24T21:39:13.794Z,38.55
2022-11-24T21:41:42.761Z,40.05
2022-11-24T21:44:12.616Z,43.33
2022-11-24T21:46:45.932Z,36.22
2022-11-24T21:49:20.896Z,34.47
2022-11-24T21:51:55.200Z,39.58
2022-11-24T21:54:25.334Z,39.95
2022-11-24T21:56:55.536Z,38.60
2022-11-24T21:59:24.051Z,35.50
2022-11-24T22:01:52.645Z,39.63
2022-11-24T22:04:21.320Z,33.90
2022-11-24T22:06:50.003Z,35.90
2022-11-24T22:09:18.771Z,32.67
2022-11-24T22:11:49.617Z,33.75
2022-11-24T22:14:18.235Z,29.58
2022-11-24T22:16:47.120Z,35.20
2022-11-24T22:19:15.620Z,32.60
2022-11-24T22:21:44.062Z,33.17
2022-11-24T22:24:12.933Z,28.20
2022-11-24T22:26:41.382Z,35.13
2022-11-24T22:29:11.872Z,36.17
2022-11-24T22:31:40.413Z,30.73
2022-11-24T22:34:09.140Z,30.00
2022-11-24T22:36:39.083Z,33.85
2022-11-24T22:39:07.722Z,34.95
2022-11-24T22:41:36.690Z,30.25
2022-11-24T22:44:06.251Z,58.15
2022-11-24T22:46:36.131Z,45.55
2022-11-24T22:49:04.642Z,48.38
2022-11-24T22:51:34.702Z,50.72
2022-11-24T22:54:04.326Z,50.80
2022-11-24T22:56:32.951Z,45.85
2022-11-24T22:59:01.887Z,45.80
2022-11-24T23:01:30.731Z,45.50
2022-11-24T23:04:00.785Z,45.63
2022-11-24T23:06:31.055Z,43.83
2022-11-24T23:09:00.866Z,41.35
2022-11-24T23:11:37.450Z,51.78
2022-11-24T23:14:07.252Z,42.83
2022-11-24T23:16:35.939Z,43.28
2022-11-24T23:19:05.993Z,42.53
2022-11-24T23:21:35.892Z,42.35
2022-11-24T23:24:05.102Z,45.13
2022-11-24T23:26:35.314Z,41.42
2022-11-24T23:29:03.945Z,40.20
2022-11-24T23:31:32.955Z,35.92
2022-11-24T23:34:02.965Z,43.65
2022-11-24T23:36:34.089Z,37.50
2022-11-24T23:39:05.654Z,42.08
2022-11-24T23:41:34.188Z,40.40
2022-11-24T23:44:02.593Z,36.40
2022-11-24T23:46:31.179Z,36.30
2022-11-24T23:48:59.685Z,36.20
2022-11-24T23:51:29.180Z,35.22
2022-11-24T23:53:59.288Z,36.20
2022-11-24T23:56:29.135Z,33.55
2022-11-24T23:58:57.598Z,36.50
